Terminal Aerodrome Forecast
Issued by NWS

Home | Current Version | Previous Version | Text Only | Print | Product List | Glossary On
Versions: 1 2 3 4 5 6 7 8 9 10 11 12 13
000
FTUS42 KMLB 171100
TAFSFB
TAF
KSFB 171125Z 1712/1812 24005KT P6SM SCT025 SCT060
     FM171500 28007KT P6SM VCSH FEW020 BKN100 BKN250
     FM171800 29012KT P6SM VCTS SCT030CB BKN060
     FM180000 30004KT P6SM VCSH BKN040 OVC080=

USA.gov is the U.S. government's official web portal to all federal, state and local government web resources and services.